createdAt,value
2017-10-23T00:01:27.551Z,9.35
2017-10-23T00:03:56.331Z,9.29
2017-10-23T00:06:25.937Z,9.25
2017-10-23T00:08:55.007Z,9.24
2017-10-23T00:11:23.331Z,9.26
2017-10-23T00:13:52.411Z,9.25
2017-10-23T00:16:20.723Z,9.25
2017-10-23T00:18:49.043Z,9.15
2017-10-23T00:21:17.750Z,9.24
2017-10-23T00:23:46.907Z,9.20
2017-10-23T00:26:15.228Z,9.16
2017-10-23T00:28:43.557Z,9.02
2017-10-23T00:31:11.880Z,9.02
2017-10-23T00:33:40.186Z,9.04
2017-10-23T00:36:08.502Z,9.09
2017-10-23T00:38:36.823Z,9.00
2017-10-23T00:41:05.166Z,8.97
2017-10-23T00:43:33.522Z,8.95
2017-10-23T00:46:01.847Z,9.02
2017-10-23T00:48:30.527Z,8.97
2017-10-23T00:50:58.853Z,9.01
2017-10-23T00:53:27.177Z,8.94
2017-10-23T00:55:56.073Z,9.05
2017-10-23T00:58:24.393Z,9.08
2017-10-23T01:00:54.026Z,9.15
2017-10-23T01:03:22.352Z,9.17
2017-10-23T01:05:50.672Z,9.19
2017-10-23T01:08:19.481Z,9.17
2017-10-23T01:10:47.787Z,9.26
2017-10-23T01:13:16.102Z,9.23
2017-10-23T01:15:44.924Z,9.19
2017-10-23T01:18:13.225Z,9.22
2017-10-23T01:20:41.543Z,9.22
2017-10-23T01:23:10.313Z,9.17
2017-10-23T01:25:38.791Z,9.16
2017-10-23T01:28:08.726Z,9.20
2017-10-23T01:30:37.312Z,9.26
2017-10-23T01:33:06.382Z,9.28
2017-10-23T01:35:34.696Z,9.11
2017-10-23T01:38:03.817Z,9.04
2017-10-23T01:40:32.145Z,9.02
2017-10-23T01:43:00.479Z,9.13
2017-10-23T01:45:28.786Z,9.16
2017-10-23T01:47:57.119Z,9.15
2017-10-23T01:50:25.904Z,9.16
2017-10-23T01:52:54.993Z,9.16
2017-10-23T01:55:23.309Z,9.15
2017-10-23T01:57:51.614Z,9.09
2017-10-23T02:00:19.949Z,9.05
2017-10-23T02:02:48.275Z,9.09
2017-10-23T02:05:16.614Z,9.07
2017-10-23T02:07:44.942Z,9.08
2017-10-23T02:10:14.775Z,9.10
2017-10-23T02:12:43.846Z,8.99
2017-10-23T02:15:12.175Z,8.91
2017-10-23T02:17:40.494Z,8.94
2017-10-23T02:20:08.806Z,8.93
2017-10-23T02:22:37.151Z,8.88
2017-10-23T02:25:05.483Z,8.91
2017-10-23T02:27:33.804Z,8.99
2017-10-23T02:30:02.154Z,9.03
2017-10-23T02:32:30.466Z,8.93
2017-10-23T02:34:58.778Z,8.94
2017-10-23T02:37:27.093Z,8.99
2017-10-23T02:39:55.422Z,9.01
2017-10-23T02:42:23.724Z,8.99
2017-10-23T02:44:52.821Z,9.00
2017-10-23T02:47:21.145Z,9.04
2017-10-23T02:49:49.452Z,9.05
2017-10-23T02:52:17.796Z,9.15
2017-10-23T02:54:46.103Z,9.07
2017-10-23T02:57:15.252Z,9.14
2017-10-23T02:59:43.569Z,9.15
2017-10-23T03:02:11.881Z,9.14
2017-10-23T03:04:40.209Z,9.12
2017-10-23T03:07:08.751Z,9.17
2017-10-23T03:09:37.843Z,9.14
2017-10-23T03:12:06.156Z,9.14
2017-10-23T03:14:34.912Z,9.10
2017-10-23T03:17:03.287Z,9.15
2017-10-23T03:19:31.612Z,9.18
2017-10-23T03:21:59.942Z,9.22
2017-10-23T03:24:29.124Z,9.18
2017-10-23T03:26:57.465Z,9.23
2017-10-23T03:29:25.807Z,9.14
2017-10-23T03:31:54.132Z,9.15
2017-10-23T03:34:22.463Z,9.19
2017-10-23T03:36:51.573Z,9.17
2017-10-23T03:39:19.909Z,9.19
2017-10-23T03:41:48.226Z,9.19
2017-10-23T03:44:17.330Z,9.30
2017-10-23T03:46:46.791Z,9.22
2017-10-23T03:49:15.894Z,9.30
2017-10-23T03:51:44.206Z,9.29
2017-10-23T03:54:13.299Z,9.24
2017-10-23T03:56:42.799Z,9.28
2017-10-23T03:59:11.867Z,9.27
2017-10-23T04:01:40.195Z,9.34
2017-10-23T04:04:08.517Z,9.45
2017-10-23T04:06:37.337Z,9.46
2017-10-23T04:09:06.407Z,9.41
2017-10-23T04:11:34.711Z,9.32
2017-10-23T04:14:03.091Z,9.37
2017-10-23T04:16:31.418Z,9.29
2017-10-23T04:18:59.812Z,9.37
2017-10-23T04:21:28.153Z,9.30
2017-10-23T04:23:57.581Z,9.35
2017-10-23T04:26:25.887Z,9.40
2017-10-23T04:28:54.183Z,9.40
2017-10-23T04:31:22.512Z,9.36
2017-10-23T04:33:51.636Z,9.37
2017-10-23T04:36:19.984Z,9.37
2017-10-23T04:38:50.312Z,9.43
2017-10-23T04:41:18.965Z,9.40
2017-10-23T04:43:47.274Z,9.38
2017-10-23T04:46:15.612Z,9.30
2017-10-23T04:48:43.950Z,9.40
2017-10-23T04:51:12.282Z,9.37
2017-10-23T04:53:40.612Z,9.21
2017-10-23T04:56:09.078Z,9.26
2017-10-23T04:58:37.406Z,9.26
2017-10-23T05:01:05.743Z,9.21
2017-10-23T05:03:34.048Z,9.18
2017-10-23T05:06:02.411Z,9.17
2017-10-23T05:08:30.724Z,9.13
2017-10-23T05:10:59.056Z,9.14
2017-10-23T05:13:27.431Z,9.15
2017-10-23T05:15:56.266Z,9.15
2017-10-23T05:18:24.570Z,9.15
2017-10-23T05:20:53.674Z,9.18
2017-10-23T05:23:22.019Z,9.19
2017-10-23T05:25:50.387Z,9.22
2017-10-23T05:28:18.743Z,9.23
2017-10-23T05:30:47.052Z,9.25
2017-10-23T05:33:15.371Z,9.22
2017-10-23T05:35:43.697Z,9.22
2017-10-23T05:38:12.024Z,9.27
2017-10-23T05:40:40.370Z,9.32
2017-10-23T05:43:08.684Z,9.40
2017-10-23T05:45:37.767Z,9.44
2017-10-23T05:48:06.092Z,9.37
2017-10-23T05:50:34.428Z,9.34
2017-10-23T05:53:02.854Z,9.38
2017-10-23T05:55:31.194Z,9.29
2017-10-23T05:58:00.290Z,9.31
2017-10-23T06:00:29.423Z,9.26
2017-10-23T06:02:58.040Z,9.29
2017-10-23T06:05:26.360Z,9.40
2017-10-23T06:07:54.691Z,9.41
2017-10-23T06:10:23.042Z,9.35
2017-10-23T06:12:51.378Z,9.39
2017-10-23T06:15:20.464Z,9.31
2017-10-23T06:17:49.581Z,9.34
2017-10-23T06:20:17.923Z,9.35
2017-10-23T06:22:46.242Z,9.45
2017-10-23T06:25:14.570Z,9.37
2017-10-23T06:27:42.879Z,9.39
2017-10-23T06:30:11.253Z,9.47
2017-10-23T06:32:39.589Z,9.41
2017-10-23T06:35:07.905Z,9.41
2017-10-23T06:37:36.245Z,9.47
2017-10-23T06:40:04.542Z,9.42
2017-10-23T06:42:32.907Z,9.49
2017-10-23T06:45:01.267Z,9.51
2017-10-23T06:47:29.659Z,9.53
2017-10-23T06:49:57.980Z,9.52
2017-10-23T06:52:26.319Z,9.62
2017-10-23T06:54:54.646Z,9.57
2017-10-23T06:57:22.942Z,9.56
2017-10-23T06:59:52.041Z,9.61
2017-10-23T07:02:20.354Z,9.60
2017-10-23T07:04:48.697Z,9.68
2017-10-23T07:07:17.004Z,9.71
2017-10-23T07:09:45.333Z,9.72
2017-10-23T07:12:13.667Z,9.71
2017-10-23T07:14:41.986Z,9.76
2017-10-23T07:17:10.373Z,9.79
2017-10-23T07:19:38.691Z,9.84
2017-10-23T07:22:07.375Z,9.81
2017-10-23T07:24:35.698Z,9.86
2017-10-23T07:27:04.135Z,9.91
2017-10-23T07:29:32.501Z,9.93
2017-10-23T07:32:00.930Z,9.93
2017-10-23T07:34:29.293Z,10.00
2017-10-23T07:36:57.930Z,10.02
2017-10-23T07:39:26.953Z,10.04
2017-10-23T07:41:55.564Z,10.11
2017-10-23T07:44:23.899Z,10.20
2017-10-23T07:46:52.355Z,10.21
2017-10-23T07:49:21.181Z,10.24
2017-10-23T07:51:49.792Z,10.28
2017-10-23T07:54:18.120Z,10.28
2017-10-23T07:56:46.509Z,10.19
2017-10-23T07:59:14.874Z,10.23
2017-10-23T08:01:43.323Z,10.32
2017-10-23T08:04:11.667Z,10.30
2017-10-23T08:06:40.127Z,10.23
2017-10-23T08:09:08.505Z,10.26
2017-10-23T08:11:37.225Z,10.33
2017-10-23T08:14:06.115Z,10.40
2017-10-23T08:16:34.508Z,10.38
2017-10-23T08:19:04.170Z,10.43
2017-10-23T08:21:32.662Z,10.49
2017-10-23T08:24:01.293Z,10.55
2017-10-23T08:26:29.655Z,10.63
2017-10-23T08:28:57.982Z,10.62
2017-10-23T08:31:26.609Z,10.57
2017-10-23T08:33:54.945Z,10.60
2017-10-23T08:36:23.418Z,10.64
2017-10-23T08:38:52.135Z,10.70
2017-10-23T08:41:20.496Z,10.73
2017-10-23T08:43:49.604Z,10.75
2017-10-23T08:46:17.925Z,10.75
2017-10-23T08:48:46.553Z,10.78
2017-10-23T08:51:14.887Z,10.82
2017-10-23T08:53:43.975Z,10.81
2017-10-23T08:56:12.799Z,10.89
2017-10-23T08:58:41.156Z,10.92
2017-10-23T09:01:10.292Z,10.91
2017-10-23T09:03:38.690Z,10.88
2017-10-23T09:06:07.343Z,10.87
2017-10-23T09:08:35.689Z,10.86
2017-10-23T09:11:04.382Z,10.91
2017-10-23T09:13:33.281Z,10.97
2017-10-23T09:16:01.672Z,10.93
2017-10-23T09:18:30.049Z,10.92
2017-10-23T09:20:58.471Z,10.94
2017-10-23T09:23:26.845Z,10.99
2017-10-23T09:25:55.175Z,11.02
2017-10-23T09:28:24.284Z,11.07
2017-10-23T09:30:52.640Z,11.14
2017-10-23T09:33:20.958Z,11.16
2017-10-23T09:35:49.306Z,11.26
2017-10-23T09:38:17.638Z,11.32
2017-10-23T09:40:45.991Z,11.31
2017-10-23T09:43:14.412Z,11.44
2017-10-23T09:45:42.780Z,11.42
2017-10-23T09:48:11.186Z,11.42
2017-10-23T09:50:39.880Z,11.44
2017-10-23T09:53:08.219Z,11.46
2017-10-23T09:55:36.540Z,11.40
2017-10-23T09:58:04.910Z,11.41
2017-10-23T10:00:33.273Z,11.44
2017-10-23T10:03:01.658Z,11.48
2017-10-23T10:05:30.102Z,11.48
2017-10-23T10:07:58.590Z,11.57
2017-10-23T10:10:27.031Z,11.58
2017-10-23T10:12:55.375Z,11.63
2017-10-23T10:15:23.837Z,11.65
2017-10-23T10:17:52.216Z,11.67
2017-10-23T10:20:21.483Z,11.73
2017-10-23T10:22:49.820Z,11.77
2017-10-23T10:25:18.148Z,11.78
2017-10-23T10:27:47.351Z,11.81
2017-10-23T10:30:15.709Z,11.78
2017-10-23T10:32:44.098Z,11.75
2017-10-23T10:35:12.452Z,11.73
2017-10-23T10:37:41.247Z,11.66
2017-10-23T10:40:09.673Z,11.60
2017-10-23T10:42:38.004Z,11.66
2017-10-23T10:45:06.364Z,11.62
2017-10-23T10:47:35.194Z,11.64
2017-10-23T10:50:04.841Z,11.71
2017-10-23T10:52:33.177Z,11.77
2017-10-23T10:55:02.528Z,11.79
2017-10-23T10:57:30.936Z,11.84
2017-10-23T10:59:59.675Z,11.95
2017-10-23T11:02:28.066Z,11.93
2017-10-23T11:04:56.378Z,11.97
2017-10-23T11:07:24.774Z,12.03
2017-10-23T11:09:53.094Z,12.04
2017-10-23T11:12:21.415Z,12.09
2017-10-23T11:14:49.777Z,12.10
2017-10-23T11:17:18.111Z,12.15
2017-10-23T11:19:47.723Z,12.20
2017-10-23T11:22:16.814Z,12.23
2017-10-23T11:24:46.435Z,12.30
2017-10-23T11:27:14.987Z,12.40
2017-10-23T11:29:43.703Z,12.45
2017-10-23T11:32:12.060Z,12.48
2017-10-23T11:34:40.369Z,12.45
2017-10-23T11:37:09.161Z,12.41
2017-10-23T11:39:37.485Z,12.44
2017-10-23T11:42:05.843Z,12.44
2017-10-23T11:44:34.569Z,12.36
2017-10-23T11:47:02.947Z,12.42
2017-10-23T11:49:31.648Z,12.43
2017-10-23T11:51:59.959Z,12.47
2017-10-23T11:54:28.286Z,12.43
2017-10-23T11:56:56.630Z,12.43
2017-10-23T11:59:24.977Z,12.54
2017-10-23T12:01:53.320Z,12.61
2017-10-23T12:04:21.919Z,12.69
2017-10-23T12:06:50.606Z,12.66
2017-10-23T12:09:18.956Z,12.67
2017-10-23T12:11:47.702Z,12.64
2017-10-23T12:14:16.798Z,12.63
2017-10-23T12:16:45.900Z,12.61
2017-10-23T12:19:14.982Z,12.58
2017-10-23T12:21:44.099Z,12.58
2017-10-23T12:24:12.443Z,12.65
2017-10-23T12:26:40.766Z,12.70
2017-10-23T12:29:09.207Z,12.71
2017-10-23T12:31:37.528Z,12.73
2017-10-23T12:34:05.898Z,12.78
2017-10-23T12:36:34.219Z,12.80
2017-10-23T12:39:02.687Z,12.81
2017-10-23T12:41:31.027Z,12.82
2017-10-23T12:43:59.355Z,12.92
2017-10-23T12:46:27.744Z,12.97
2017-10-23T12:48:56.070Z,12.99
2017-10-23T12:51:24.418Z,13.05
2017-10-23T12:53:52.739Z,13.09
2017-10-23T12:56:21.097Z,13.09
2017-10-23T12:58:50.198Z,13.10
2017-10-23T13:01:18.520Z,13.07
2017-10-23T13:03:47.629Z,13.04
2017-10-23T13:06:16.346Z,13.10
2017-10-23T13:08:45.438Z,13.14
2017-10-23T13:11:14.604Z,13.16
2017-10-23T13:13:43.388Z,13.14
2017-10-23T13:16:11.723Z,13.19
2017-10-23T13:18:40.807Z,13.26
2017-10-23T13:21:10.326Z,13.28
2017-10-23T13:23:39.424Z,13.34
2017-10-23T13:26:08.537Z,13.40
2017-10-23T13:28:37.280Z,13.43
2017-10-23T13:31:05.878Z,13.40
2017-10-23T13:33:34.359Z,13.33
2017-10-23T13:36:02.682Z,13.40
2017-10-23T13:38:31.038Z,13.36
2017-10-23T13:40:59.382Z,13.30
2017-10-23T13:43:29.236Z,13.33
2017-10-23T13:45:58.715Z,13.34
2017-10-23T13:48:27.828Z,13.32
2017-10-23T13:50:56.933Z,13.35
2017-10-23T13:53:25.751Z,13.39
2017-10-23T13:55:54.086Z,13.40
2017-10-23T13:58:23.182Z,13.43
2017-10-23T14:00:51.564Z,13.50
2017-10-23T14:03:19.920Z,13.52
2017-10-23T14:05:48.271Z,13.55
2017-10-23T14:08:16.595Z,13.56
2017-10-23T14:10:45.401Z,13.61
2017-10-23T14:13:14.487Z,13.67
2017-10-23T14:15:42.807Z,13.68
2017-10-23T14:18:11.138Z,13.66
2017-10-23T14:20:39.454Z,13.63
2017-10-23T14:23:07.832Z,13.67
2017-10-23T14:25:37.041Z,13.70
2017-10-23T14:28:05.379Z,13.74
2017-10-23T14:30:33.714Z,13.69
2017-10-23T14:33:02.309Z,13.73
2017-10-23T14:35:30.623Z,13.72
2017-10-23T14:37:59.715Z,13.72
2017-10-23T14:40:28.065Z,13.64
2017-10-23T14:42:56.378Z,13.68
2017-10-23T14:45:24.784Z,13.66
2017-10-23T14:47:54.380Z,13.67
2017-10-23T14:50:24.007Z,13.66
2017-10-23T14:52:52.339Z,13.66
2017-10-23T14:55:20.814Z,13.63
2017-10-23T14:57:49.149Z,13.67
2017-10-23T15:00:17.511Z,13.95
2017-10-23T15:02:46.624Z,14.14
2017-10-23T15:05:14.936Z,14.18
2017-10-23T15:07:43.355Z,14.20
2017-10-23T15:10:11.741Z,14.12
2017-10-23T15:12:40.449Z,14.13
2017-10-23T15:15:08.823Z,14.11
2017-10-23T15:17:37.147Z,14.00
2017-10-23T15:20:05.490Z,13.91
2017-10-23T15:22:33.848Z,13.92
2017-10-23T15:25:02.978Z,13.79
2017-10-23T15:27:31.303Z,13.73
2017-10-23T15:30:00.005Z,13.69
2017-10-23T15:32:29.165Z,13.57
2017-10-23T15:34:57.913Z,13.56
2017-10-23T15:37:26.257Z,13.54
2017-10-23T15:39:54.669Z,13.50
2017-10-23T15:42:23.768Z,13.49
2017-10-23T15:44:53.265Z,13.45
2017-10-23T15:47:22.386Z,13.39
2017-10-23T15:49:50.720Z,13.33
2017-10-23T15:52:19.049Z,13.35
2017-10-23T15:54:47.412Z,13.36
2017-10-23T15:57:15.754Z,13.25
2017-10-23T15:59:44.108Z,13.20
2017-10-23T16:02:12.427Z,13.18
2017-10-23T16:04:41.057Z,13.15
2017-10-23T16:07:09.971Z,13.18
2017-10-23T16:09:38.342Z,13.18
2017-10-23T16:12:06.688Z,13.19
2017-10-23T16:14:35.021Z,13.10
2017-10-23T16:17:03.441Z,13.07
2017-10-23T16:19:32.530Z,12.98
2017-10-23T16:22:01.216Z,13.01
2017-10-23T16:24:30.849Z,12.98
2017-10-23T16:26:59.181Z,12.92
2017-10-23T16:29:27.542Z,12.89
2017-10-23T16:31:57.079Z,12.90
2017-10-23T16:34:25.415Z,12.71
2017-10-23T16:36:53.851Z,12.71
2017-10-23T16:39:22.970Z,12.75
2017-10-23T16:41:51.323Z,12.75
2017-10-23T16:44:20.428Z,12.69
2017-10-23T16:46:48.773Z,12.70
2017-10-23T16:49:17.089Z,12.64
2017-10-23T16:51:46.615Z,12.68
2017-10-23T16:54:14.926Z,12.66
2017-10-23T16:56:43.965Z,12.60
2017-10-23T16:59:13.083Z,12.57
2017-10-23T17:01:41.436Z,12.59
2017-10-23T17:04:09.789Z,12.55
2017-10-23T17:06:38.127Z,12.58
2017-10-23T17:09:06.961Z,12.58
2017-10-23T17:11:35.280Z,12.48
2017-10-23T17:14:04.381Z,12.51
2017-10-23T17:16:32.700Z,12.45
2017-10-23T17:19:01.801Z,12.44
2017-10-23T17:21:30.536Z,12.42
2017-10-23T17:23:59.656Z,12.44
2017-10-23T17:26:28.020Z,12.45
2017-10-23T17:28:57.560Z,12.45
2017-10-23T17:31:26.784Z,12.46
2017-10-23T17:33:55.531Z,12.46
2017-10-23T17:36:24.651Z,12.36
2017-10-23T17:38:53.738Z,12.36
2017-10-23T17:41:22.087Z,12.36
2017-10-23T17:43:50.871Z,12.40
2017-10-23T17:46:19.992Z,12.42
2017-10-23T17:48:48.317Z,12.41
2017-10-23T17:51:16.899Z,12.46
2017-10-23T17:53:45.226Z,12.43
2017-10-23T17:56:13.558Z,12.37
2017-10-23T17:58:41.902Z,12.36
2017-10-23T18:01:10.235Z,12.29
2017-10-23T18:03:39.759Z,12.32
2017-10-23T18:06:08.854Z,12.38
2017-10-23T18:08:37.196Z,12.40
2017-10-23T18:11:05.522Z,12.42
2017-10-23T18:13:33.884Z,12.42
2017-10-23T18:16:02.995Z,12.38
2017-10-23T18:18:31.329Z,12.40
2017-10-23T18:20:59.677Z,12.42
2017-10-23T18:23:32.309Z,12.39
2017-10-23T18:26:03.299Z,12.36
2017-10-23T18:28:31.848Z,12.33
2017-10-23T18:31:01.192Z,12.32
2017-10-23T18:33:29.518Z,12.33
2017-10-23T18:35:57.942Z,12.31
2017-10-23T18:38:26.308Z,12.30
2017-10-23T18:40:54.762Z,12.35
2017-10-23T18:43:23.118Z,12.39
2017-10-23T18:45:51.450Z,12.37
2017-10-23T18:48:19.806Z,12.28
2017-10-23T18:50:48.896Z,12.29
2017-10-23T18:53:17.251Z,12.34
2017-10-23T18:55:45.597Z,12.34
2017-10-23T18:58:14.358Z,12.35
2017-10-23T19:00:42.680Z,12.33
2017-10-23T19:03:11.015Z,12.30
2017-10-23T19:05:40.142Z,12.30
2017-10-23T19:08:08.497Z,12.30
2017-10-23T19:10:37.714Z,12.30
2017-10-23T19:13:06.035Z,12.26
2017-10-23T19:15:34.380Z,12.24
2017-10-23T19:18:02.696Z,12.23
2017-10-23T19:20:33.477Z,12.26
2017-10-23T19:23:02.698Z,12.29
2017-10-23T19:25:31.093Z,12.24
2017-10-23T19:27:59.449Z,12.23
2017-10-23T19:30:27.775Z,12.28
2017-10-23T19:32:56.203Z,12.26
2017-10-23T19:35:24.634Z,12.25
2017-10-23T19:37:53.003Z,12.20
2017-10-23T19:40:21.431Z,12.24
2017-10-23T19:42:49.776Z,12.27
2017-10-23T19:45:18.115Z,12.27
2017-10-23T19:47:46.436Z,12.29
2017-10-23T19:50:15.577Z,12.26
2017-10-23T19:52:43.905Z,12.24
2017-10-23T19:55:12.282Z,12.23
2017-10-23T19:57:40.607Z,12.23
2017-10-23T20:00:08.963Z,12.26
2017-10-23T20:02:38.060Z,12.26
2017-10-23T20:05:06.419Z,12.22
2017-10-23T20:07:34.765Z,12.18
2017-10-23T20:10:03.085Z,12.21
2017-10-23T20:12:32.343Z,12.21
2017-10-23T20:15:00.661Z,12.21
2017-10-23T20:17:29.006Z,12.22
2017-10-23T20:19:57.326Z,12.22
2017-10-23T20:22:25.677Z,12.20
2017-10-23T20:24:54.002Z,12.20
2017-10-23T20:27:23.114Z,12.13
2017-10-23T20:29:51.439Z,12.14
2017-10-23T20:32:19.789Z,12.16
2017-10-23T20:34:48.140Z,12.17
2017-10-23T20:37:17.250Z,12.08
2017-10-23T20:39:45.684Z,12.13
2017-10-23T20:42:14.057Z,12.08
2017-10-23T20:44:42.413Z,12.09
2017-10-23T20:47:10.746Z,12.19
2017-10-23T20:49:39.089Z,12.16
2017-10-23T20:52:07.438Z,12.16
2017-10-23T20:54:35.823Z,12.19
2017-10-23T20:57:04.337Z,12.24
2017-10-23T20:59:32.782Z,12.24
2017-10-23T21:02:01.115Z,12.22
2017-10-23T21:04:29.637Z,12.27
2017-10-23T21:06:57.987Z,12.29
2017-10-23T21:09:27.085Z,12.28
2017-10-23T21:11:55.454Z,12.32
2017-10-23T21:14:23.778Z,12.27
2017-10-23T21:16:52.099Z,12.27
2017-10-23T21:19:20.469Z,12.28
2017-10-23T21:21:49.250Z,12.26
2017-10-23T21:24:17.592Z,12.29
2017-10-23T21:26:46.701Z,12.26
2017-10-23T21:29:15.042Z,12.30
2017-10-23T21:31:43.393Z,12.27
2017-10-23T21:34:11.711Z,12.30
2017-10-23T21:36:40.827Z,12.23
2017-10-23T21:39:09.248Z,12.25
2017-10-23T21:41:37.856Z,12.18
2017-10-23T21:44:06.194Z,12.18
2017-10-23T21:46:52.880Z,12.23
2017-10-23T21:49:21.214Z,12.24
2017-10-23T21:51:49.540Z,12.16
2017-10-23T21:54:18.393Z,12.17
2017-10-23T21:56:47.144Z,12.19
2017-10-23T21:59:15.729Z,12.15
2017-10-23T22:01:44.753Z,12.16
2017-10-23T22:04:13.166Z,12.19
2017-10-23T22:06:42.286Z,12.17
2017-10-23T22:09:10.610Z,12.21
2017-10-23T22:11:38.960Z,12.18
2017-10-23T22:14:07.289Z,12.18
2017-10-23T22:16:36.131Z,12.17
2017-10-23T22:19:04.447Z,12.14
2017-10-23T22:21:32.768Z,12.21
2017-10-23T22:24:02.062Z,12.19
2017-10-23T22:26:31.154Z,12.23
2017-10-23T22:28:59.488Z,12.24
2017-10-23T22:31:27.805Z,12.14
2017-10-23T22:33:57.175Z,12.22
2017-10-23T22:36:25.495Z,12.18
2017-10-23T22:38:54.565Z,12.21
2017-10-23T22:41:22.924Z,12.22
2017-10-23T22:43:51.248Z,12.14
2017-10-23T22:46:20.371Z,12.16
2017-10-23T22:48:48.697Z,12.14
2017-10-23T22:51:17.043Z,12.14
2017-10-23T22:53:45.354Z,12.20
2017-10-23T22:56:13.938Z,12.22
2017-10-23T22:58:42.265Z,12.19
2017-10-23T23:01:10.595Z,12.14
2017-10-23T23:03:39.823Z,12.17
2017-10-23T23:06:08.913Z,12.15
2017-10-23T23:08:38.433Z,12.14
2017-10-23T23:11:07.534Z,12.14
2017-10-23T23:13:35.885Z,12.14
2017-10-23T23:16:04.284Z,12.14
2017-10-23T23:18:32.617Z,12.19
2017-10-23T23:21:00.939Z,12.16
2017-10-23T23:23:30.018Z,12.13
2017-10-23T23:25:58.379Z,12.14
2017-10-23T23:28:26.690Z,12.09
2017-10-23T23:30:55.803Z,12.07
2017-10-23T23:33:24.138Z,12.09
2017-10-23T23:35:52.465Z,12.15
2017-10-23T23:38:20.801Z,12.14
2017-10-23T23:40:49.509Z,12.07
2017-10-23T23:43:17.902Z,12.08
2017-10-23T23:45:47.001Z,12.11
2017-10-23T23:48:16.106Z,12.12
2017-10-23T23:50:44.425Z,12.11
2017-10-23T23:53:13.023Z,12.05
2017-10-23T23:55:42.288Z,12.05
2017-10-23T23:58:10.632Z,12.08
